Time;durP1;ratioP1;P1;durP2;ratioP2;P2;SDS_P1;SDS_P2;PMS_P1;PMS_P2;Temp;Humidity;BMP_temperature;BMP_pressure;BME280_temperature;BME280_humidity;BME280_pressure;Samples;Min_cycle;Max_cycle;Signal;HPM_P1;HPM_P2
2021/11/03 00:00:56;;;;;;;21.80;18.73;;;;;;;25.41;22.30;94049.03;5006092;28;20360;-46
2021/11/03 00:03:23;;;;;;;20.17;17.95;;;;;;;25.35;22.46;94045.25;5005820;28;20057;-46
2021/11/03 00:05:51;;;;;;;19.48;17.45;;;;;;;25.31;22.40;94047.16;5006717;28;20057;-47
2021/11/03 00:08:23;;;;;;;18.63;16.63;;;;;;;25.47;22.47;94052.84;5005163;28;20046;-46
2021/11/03 00:10:52;;;;;;;18.98;17.08;;;;;;;25.47;22.18;94061.63;5004490;28;20904;-47
2021/11/03 00:13:22;;;;;;;18.13;16.35;;;;;;;25.23;22.32;94061.69;5004629;28;20058;-46
2021/11/03 00:15:51;;;;;;;17.95;16.05;;;;;;;25.54;22.01;94071.56;5006724;28;20457;-47
2021/11/03 00:18:18;;;;;;;19.20;17.10;;;;;;;25.39;22.73;94062.03;5004408;28;20046;-47
2021/11/03 00:20:45;;;;;;;18.88;16.85;;;;;;;25.65;22.47;94072.28;5005728;28;20050;-46
2021/11/03 00:23:12;;;;;;;18.80;16.90;;;;;;;25.38;22.90;94073.91;5005625;28;20050;-46
2021/11/03 00:25:41;;;;;;;17.98;16.17;;;;;;;25.40;22.39;94076.94;5004513;28;20372;-49
2021/11/03 00:28:09;;;;;;;19.00;17.02;;;;;;;25.38;22.94;94074.66;5004319;28;20053;-47
2021/11/03 00:30:36;;;;;;;16.92;15.20;;;;;;;25.51;22.23;94070.44;5005675;28;20436;-46
2021/11/03 00:33:03;;;;;;;16.92;15.27;;;;;;;25.21;22.15;94078.88;5002099;28;20061;-48
2021/11/03 00:35:31;;;;;;;18.33;16.45;;;;;;;25.31;22.12;94073.91;5005858;28;20046;-46
2021/11/03 00:37:58;;;;;;;17.42;15.60;;;;;;;25.21;21.94;94073.53;5003965;28;20049;-46
2021/11/03 00:40:25;;;;;;;18.85;16.92;;;;;;;25.44;21.94;94081.13;5006109;28;20357;-46
2021/11/03 00:42:52;;;;;;;18.48;16.48;;;;;;;25.40;22.39;94083.06;5001615;28;20500;-47
2021/11/03 00:45:21;;;;;;;19.17;17.17;;;;;;;25.50;22.36;94086.84;5005083;28;20056;-46
2021/11/03 00:47:48;;;;;;;19.92;17.00;;;;;;;25.26;22.50;94077.75;5002663;28;20053;-46
2021/11/03 00:50:18;;;;;;;18.77;16.95;;;;;;;25.09;22.14;94081.22;5005388;28;20385;-47
2021/11/03 00:52:46;;;;;;;20.77;18.55;;;;;;;25.19;22.19;94089.22;5013858;28;20057;-46
2021/11/03 00:55:13;;;;;;;22.52;20.23;;;;;;;25.27;22.72;94089.97;5015206;28;20050;-47
2021/11/03 00:57:41;;;;;;;25.30;21.58;;;;;;;25.25;21.95;94084.25;5014170;28;20475;-47
2021/11/03 01:00:10;;;;;;;25.58;22.95;;;;;;;25.58;22.35;94091.03;5014606;28;20058;-46
2021/11/03 01:02:37;;;;;;;24.20;21.70;;;;;;;25.39;22.80;94094.16;5015294;28;20046;-47
2021/11/03 01:05:09;;;;;;;24.40;21.00;;;;;;;25.45;22.36;94104.06;5012744;28;20056;-46
2021/11/03 01:07:36;;;;;;;22.88;20.48;;;;;;;25.55;22.05;94099.84;5014128;28;20049;-46
2021/11/03 01:10:05;;;;;;;22.63;20.13;;;;;;;25.36;21.90;94109.06;5015055;28;20042;-46
2021/11/03 01:12:34;;;;;;;22.40;20.02;;;;;;;25.26;22.16;94109.09;5015053;28;20050;-46
2021/11/03 01:15:02;;;;;;;21.48;19.25;;;;;;;25.19;21.98;94105.25;5012797;28;20641;-46
2021/11/03 01:17:32;;;;;;;20.35;18.30;;;;;;;25.16;21.82;94111.38;5014919;28;20143;-49
2021/11/03 01:19:59;;;;;;;20.85;18.65;;;;;;;25.32;21.57;94105.63;5014615;28;20483;-51
2021/11/03 01:22:26;;;;;;;20.67;18.65;;;;;;;25.21;22.13;94110.22;5014927;28;20368;-47
2021/11/03 01:24:53;;;;;;;21.15;18.95;;;;;;;25.34;21.85;94110.59;5013870;28;20361;-51
2021/11/03 01:27:20;;;;;;;20.90;18.65;;;;;;;25.26;21.79;94117.13;5014578;28;20049;-45
2021/11/03 01:29:47;;;;;;;19.42;16.80;;;;;;;25.12;21.83;94115.97;5013389;28;20042;-46
2021/11/03 01:32:14;;;;;;;18.73;16.83;;;;;;;24.87;22.20;94124.00;5013845;28;20516;-45
2021/11/03 01:34:41;;;;;;;17.48;15.77;;;;;;;24.88;21.97;94127.44;5014773;28;20045;-46
2021/11/03 01:37:08;;;;;;;16.90;15.20;;;;;;;24.80;22.11;94125.91;5013296;28;20042;-48
2021/11/03 01:39:36;;;;;;;17.98;15.27;;;;;;;24.74;22.17;94132.78;5013403;28;20049;-49
2021/11/03 01:42:04;;;;;;;17.65;15.80;;;;;;;24.98;21.60;94140.00;5013814;28;20049;-49
2021/11/03 01:44:32;;;;;;;18.40;15.10;;;;;;;24.80;21.88;94133.94;5013903;28;20372;-47
2021/11/03 01:47:38;;;;;;;18.40;16.40;;;;;;;24.64;21.97;94141.53;5012718;28;20056;-48
2021/11/03 01:50:30;;;;;;;21.20;17.65;;;;;;;24.92;21.88;94152.25;5012957;28;20049;-47
2021/11/03 01:53:22;;;;;;;20.88;18.67;;;;;;;24.76;22.08;94151.88;5006126;28;20049;-47
2021/11/03 01:56:00;;;;;;;19.35;17.45;;;;;;;24.63;22.04;94143.44;4996987;28;20050;-47
2021/11/03 01:58:38;;;;;;;21.45;17.90;;;;;;;24.66;22.34;94148.03;5012037;28;20065;-47
2021/11/03 02:01:07;;;;;;;23.35;20.95;;;;;;;24.77;22.07;94143.47;5029891;28;20061;-46
2021/11/03 02:03:35;;;;;;;22.63;20.35;;;;;;;24.84;21.94;94156.06;4996809;28;20057;-48
2021/11/03 02:06:09;;;;;;;19.77;17.83;;;;;;;24.69;22.11;94159.88;5013428;28;20046;-47
2021/11/03 02:08:40;;;;;;;20.80;18.73;;;;;;;24.79;21.92;94169.81;5013249;28;20052;-46
2021/11/03 02:11:10;;;;;;;19.83;17.58;;;;;;;24.73;22.16;94164.09;4996959;28;20042;-46
2021/11/03 02:13:38;;;;;;;18.33;16.52;;;;;;;24.68;22.22;94161.00;5014089;28;20057;-47
2021/11/03 02:16:08;;;;;;;19.10;17.20;;;;;;;24.87;22.21;94157.97;4996172;28;20045;-46
2021/11/03 02:18:36;;;;;;;19.42;17.50;;;;;;;24.73;22.22;94171.34;5013147;28;20064;-46
2021/11/03 02:21:04;;;;;;;18.73;16.73;;;;;;;24.76;22.26;94178.59;5013137;28;20054;-46
2021/11/03 02:23:55;;;;;;;17.40;15.60;;;;;;;24.77;22.58;94174.78;5013251;28;20782;-46
2021/11/03 02:26:31;;;;;;;16.60;14.90;;;;;;;24.65;22.99;94161.78;4995723;28;20049;-46
2021/11/03 02:28:59;;;;;;;16.95;15.15;;;;;;;24.87;22.65;94177.47;5013556;28;20060;-46
2021/11/03 02:31:42;;;;;;;17.55;15.73;;;;;;;24.82;22.56;94183.19;5013143;28;20384;-46
2021/11/03 02:34:12;;;;;;;21.15;17.38;;;;;;;24.70;22.52;94191.56;5014035;28;20053;-49
2021/11/03 02:36:58;;;;;;;20.90;18.60;;;;;;;22.25;26.15;94179.28;5007996;28;20053;-46
2021/11/03 02:39:48;;;;;;;25.95;20.38;;;;;;;23.77;23.91;94181.69;5011972;28;20054;-46
2021/11/03 02:42:16;;;;;;;24.27;19.27;;;;;;;23.72;24.26;94182.81;5007855;28;20057;-47
2021/11/03 02:44:44;;;;;;;24.75;20.95;;;;;;;24.16;23.83;94190.63;4994319;28;20365;-46
2021/11/03 02:47:13;;;;;;;25.45;21.27;;;;;;;24.57;23.38;94193.06;4992524;28;20050;-45
2021/11/03 02:49:41;;;;;;;25.23;21.20;;;;;;;24.57;23.57;94187.72;5015416;28;20044;-46
2021/11/03 02:52:26;;;;;;;22.52;20.10;;;;;;;24.66;23.58;94185.44;5013492;28;20046;-47
2021/11/03 02:54:54;;;;;;;22.75;19.63;;;;;;;24.35;23.90;94192.25;5013275;28;20042;-46
2021/11/03 02:57:22;;;;;;;20.13;18.02;;;;;;;24.66;23.56;94195.38;5014072;28;20049;-47
2021/11/03 02:59:49;;;;;;;20.63;18.52;;;;;;;24.64;23.63;94205.69;5016180;28;20056;-46
2021/11/03 03:02:16;;;;;;;21.00;18.80;;;;;;;24.67;23.65;94203.00;5016241;28;20049;-46
2021/11/03 03:04:48;;;;;;;20.55;18.35;;;;;;;24.77;23.66;94207.63;5016235;28;20129;-46
2021/11/03 03:07:16;;;;;;;19.92;17.88;;;;;;;24.47;24.11;94215.97;5016357;28;20057;-46
2021/11/03 03:09:43;;;;;;;19.35;17.35;;;;;;;24.62;23.86;94210.63;5016257;28;20057;-46
2021/11/03 03:12:14;;;;;;;19.38;17.27;;;;;;;24.50;24.11;94214.44;5015072;28;20490;-46
2021/11/03 03:14:45;;;;;;;21.45;19.05;;;;;;;24.74;23.56;94215.63;5016380;28;20048;-47
2021/11/03 03:17:16;;;;;;;21.92;19.35;;;;;;;24.68;23.63;94206.44;5015903;28;20042;-46
2021/11/03 03:19:44;;;;;;;23.88;21.35;;;;;;;24.76;23.44;94200.00;4999879;28;20046;-46
2021/11/03 03:22:14;;;;;;;22.13;19.92;;;;;;;24.54;23.62;94209.88;5016178;28;20125;-46
2021/11/03 03:24:43;;;;;;;23.30;20.90;;;;;;;24.72;23.29;94215.22;5015330;28;20072;-47
2021/11/03 03:27:11;;;;;;;21.63;19.48;;;;;;;24.58;23.15;94199.94;5015618;28;20061;-50
2021/11/03 03:29:39;;;;;;;20.45;17.67;;;;;;;24.22;23.79;94204.41;5015656;28;20472;-46
2021/11/03 03:32:09;;;;;;;18.02;16.23;;;;;;;24.14;23.88;94221.53;5015755;28;20041;-46
2021/11/03 03:34:36;;;;;;;19.23;15.95;;;;;;;24.19;23.89;94221.16;5005447;28;20050;-47
2021/11/03 03:37:04;;;;;;;17.48;15.60;;;;;;;24.45;23.44;94228.16;5025066;28;20045;-46
2021/11/03 03:39:35;;;;;;;28.33;16.30;;;;;;;24.71;23.38;94243.09;5015736;28;20049;-47
2021/11/03 03:42:12;;;;;;;18.13;16.25;;;;;;;24.78;23.54;94245.81;5012475;28;20057;-47
2021/11/03 03:44:40;;;;;;;17.02;15.32;;;;;;;24.76;23.50;94238.19;4997075;28;20050;-46
2021/11/03 03:47:08;;;;;;;16.67;15.07;;;;;;;24.83;23.36;94245.44;5025174;28;20050;-46
2021/11/03 03:49:36;;;;;;;17.20;15.35;;;;;;;24.49;23.93;94245.75;5016589;28;20042;-47
2021/11/03 03:52:04;;;;;;;16.52;14.90;;;;;;;24.88;23.37;94251.16;5015683;28;20470;-47
2021/11/03 03:54:32;;;;;;;16.83;15.18;;;;;;;24.60;23.51;94249.19;5016502;28;20420;-47
2021/11/03 03:57:00;;;;;;;15.13;13.63;;;;;;;24.66;23.48;94252.25;5015051;28;20057;-47
2021/11/03 03:59:28;;;;;;;16.17;14.52;;;;;;;23.97;24.41;94263.78;5014674;28;20053;-48
2021/11/03 04:01:55;;;;;;;15.77;13.27;;;;;;;23.94;24.22;94259.22;5001229;28;20076;-47
2021/11/03 04:04:23;;;;;;;13.95;12.50;;;;;;;24.19;23.71;94263.88;5015272;28;20051;-46
2021/11/03 04:06:52;;;;;;;13.27;11.90;;;;;;;24.16;23.73;94259.28;5014836;28;20049;-47
2021/11/03 04:09:19;;;;;;;15.02;12.50;;;;;;;24.02;23.79;94267.25;5015325;28;20049;-48
2021/11/03 04:11:46;;;;;;;12.50;11.30;;;;;;;24.13;23.49;94273.41;5014254;28;20053;-51
2021/11/03 04:14:18;;;;;;;11.52;10.43;;;;;;;24.40;23.07;94264.00;5015137;28;20661;-47
2021/11/03 04:16:46;;;;;;;12.10;11.00;;;;;;;24.35;22.93;94264.38;5014061;28;20046;-47
2021/11/03 04:19:13;;;;;;;11.15;10.10;;;;;;;24.36;22.70;94273.91;5015109;28;20049;-48
2021/11/03 04:21:41;;;;;;;10.45;9.45;;;;;;;24.05;22.97;94269.16;5016076;28;20118;-47
2021/11/03 04:24:08;;;;;;;10.02;9.13;;;;;;;24.32;22.74;94273.13;5015187;28;20052;-47
2021/11/03 04:26:42;;;;;;;11.75;10.55;;;;;;;24.27;22.73;94271.56;5014458;28;20057;-47
2021/11/03 04:29:10;;;;;;;11.27;10.15;;;;;;;24.18;22.67;94267.69;5013745;28;20061;-47
2021/11/03 04:31:39;;;;;;;11.27;10.25;;;;;;;24.39;22.65;94269.72;5014953;28;20342;-46
2021/11/03 04:34:07;;;;;;;11.95;10.63;;;;;;;23.98;23.04;94270.66;5014598;28;20045;-46
2021/11/03 04:36:35;;;;;;;11.65;10.45;;;;;;;24.34;22.34;94268.19;5014313;28;20042;-46
2021/11/03 04:39:05;;;;;;;11.15;10.15;;;;;;;24.16;22.73;94281.41;5014645;28;20049;-46
2021/11/03 04:41:33;;;;;;;12.30;10.88;;;;;;;24.07;23.03;94282.91;5014024;28;20380;-47
2021/11/03 04:44:00;;;;;;;11.88;10.68;;;;;;;24.07;22.79;94298.94;5014786;28;20497;-47
2021/11/03 04:46:28;;;;;;;10.93;9.82;;;;;;;24.15;22.72;94289.81;5015076;28;20050;-47
2021/11/03 04:48:57;;;;;;;10.60;9.60;;;;;;;24.18;22.77;94286.38;5014700;28;20060;-47
2021/11/03 04:51:24;;;;;;;11.32;10.23;;;;;;;24.57;22.41;94290.03;5015914;28;20042;-46
2021/11/03 04:53:52;;;;;;;11.05;10.05;;;;;;;23.87;23.32;94288.50;5013722;28;20053;-46
2021/11/03 04:56:19;;;;;;;11.63;10.50;;;;;;;23.84;23.28;94286.59;5013997;28;20084;-48
2021/11/03 04:58:49;;;;;;;12.68;11.45;;;;;;;23.84;23.33;94297.25;5013998;28;20045;-46
2021/11/03 05:01:20;;;;;;;12.57;11.27;;;;;;;23.77;23.30;94299.13;5014593;28;20174;-47
2021/11/03 05:03:48;;;;;;;12.73;11.23;;;;;;;23.99;23.10;94287.44;5014275;28;20042;-47
2021/11/03 05:06:18;;;;;;;12.05;10.85;;;;;;;23.86;23.23;94308.34;5015267;28;20050;-46
2021/11/03 05:08:47;;;;;;;13.18;11.45;;;;;;;24.24;22.81;94307.03;4994876;28;20061;-47
2021/11/03 05:11:15;;;;;;;12.68;11.48;;;;;;;24.06;23.25;94300.06;4994750;28;20042;-46
2021/11/03 05:13:43;;;;;;;12.40;11.25;;;;;;;24.05;23.01;94301.22;4998377;28;20053;-46
2021/11/03 05:16:16;;;;;;;12.52;11.32;;;;;;;24.16;23.11;94296.69;5013931;28;20042;-48
2021/11/03 05:18:44;;;;;;;13.82;12.18;;;;;;;20.97;27.04;94308.47;5007677;28;20046;-47
2021/11/03 05:21:12;;;;;;;12.77;11.45;;;;;;;23.87;24.00;94306.44;5023148;28;20056;-47
2021/11/03 05:23:40;;;;;;;11.30;10.10;;;;;;;25.26;22.57;94307.81;5016370;28;20049;-46
2021/11/03 05:26:07;;;;;;;11.18;9.68;;;;;;;26.16;21.55;94316.59;4997069;28;20058;-46
2021/11/03 05:28:38;;;;;;;11.25;9.70;;;;;;;26.19;21.40;94318.47;5001667;28;20049;-56
2021/11/03 05:31:06;;;;;;;10.57;9.48;;;;;;;26.24;21.21;94320.75;5014353;28;20049;-44
2021/11/03 05:33:33;;;;;;;10.73;9.63;;;;;;;26.85;20.45;94310.63;5012069;28;20555;-46
2021/11/03 05:36:00;;;;;;;11.85;10.60;;;;;;;28.32;19.20;94322.59;5010937;28;20122;-48
2021/11/03 05:38:28;;;;;;;13.48;9.93;;;;;;;29.23;18.19;94318.47;4999546;28;20689;-47
2021/11/03 05:40:55;;;;;;;11.50;10.25;;;;;;;30.05;17.27;94315.31;5001858;28;20061;-50
2021/11/03 05:43:22;;;;;;;18.55;10.13;;;;;;;30.31;17.58;94313.69;4999962;28;20057;-51
2021/11/03 05:45:50;;;;;;;12.50;10.00;;;;;;;30.79;16.62;94310.47;5013007;28;20050;-50
2021/11/03 05:48:17;;;;;;;12.50;9.40;;;;;;;31.34;16.53;94317.03;5008484;28;20053;-45
2021/11/03 05:50:45;;;;;;;8.90;8.00;;;;;;;31.03;17.57;94330.00;4998984;28;20042;-50
2021/11/03 05:53:12;;;;;;;9.75;8.75;;;;;;;31.15;17.58;94348.25;4994680;28;20061;-44
2021/11/03 05:55:39;;;;;;;9.07;8.18;;;;;;;31.37;17.57;94364.03;5012527;28;20042;-43
2021/11/03 05:58:07;;;;;;;10.55;8.98;;;;;;;32.84;16.19;94357.38;5008855;28;20470;-48
2021/11/03 06:00:37;;;;;;;10.68;9.07;;;;;;;32.25;15.92;94349.59;4995529;28;20057;-50
2021/11/03 06:03:04;;;;;;;10.70;9.70;;;;;;;31.71;16.34;94350.13;4994580;28;20050;-50
2021/11/03 06:05:31;;;;;;;11.25;10.10;;;;;;;30.43;17.19;94341.94;5009075;28;20064;-54
2021/11/03 06:08:06;;;;;;;12.98;11.20;;;;;;;28.43;18.71;94360.16;4996500;28;20050;-68
2021/11/03 06:10:38;;;;;;;12.07;10.82;;;;;;;27.65;19.36;94366.94;4993915;28;20050;-65
2021/11/03 06:13:07;;;;;;;13.68;11.20;;;;;;;27.06;19.87;94350.00;5014059;28;20049;-50
2021/11/03 06:15:35;;;;;;;12.32;11.02;;;;;;;26.59;20.41;94352.09;5007365;28;20045;-67
2021/11/03 06:18:03;;;;;;;12.02;10.82;;;;;;;26.24;20.67;94356.34;5006228;28;20053;-60
2021/11/03 06:20:31;;;;;;;12.32;11.13;;;;;;;26.38;20.83;94359.06;4994859;28;20050;-52
2021/11/03 06:22:58;;;;;;;11.82;10.07;;;;;;;25.94;21.43;94374.75;4993772;28;20052;-55
2021/11/03 06:25:26;;;;;;;11.57;10.38;;;;;;;25.81;21.38;94377.84;5008784;28;20081;-62
2021/11/03 06:27:55;;;;;;;12.05;10.85;;;;;;;25.59;21.59;94384.28;5002940;28;20049;-51
2021/11/03 06:30:26;;;;;;;12.25;11.05;;;;;;;25.54;21.63;94371.28;5012437;28;20049;-63
2021/11/03 06:32:54;;;;;;;12.07;10.88;;;;;;;25.43;21.68;94367.81;5013952;28;20050;-67
2021/11/03 06:35:22;;;;;;;12.38;10.95;;;;;;;25.20;22.03;94368.91;5012779;28;20068;-53
2021/11/03 06:37:50;;;;;;;12.35;11.15;;;;;;;25.29;21.87;94381.19;5013841;28;20046;-61
2021/11/03 06:40:21;;;;;;;11.63;10.52;;;;;;;24.42;23.25;94386.53;5013766;28;20107;-49
2021/11/03 06:42:48;;;;;;;13.35;11.52;;;;;;;24.88;22.47;94386.75;4998519;28;20046;-50
2021/11/03 06:45:18;;;;;;;13.80;12.38;;;;;;;24.89;22.33;94374.91;5010498;28;20667;-48
2021/11/03 06:47:46;;;;;;;13.25;11.95;;;;;;;24.81;22.78;94394.75;5013832;28;20052;-51
2021/11/03 06:50:16;;;;;;;14.82;13.30;;;;;;;25.24;22.21;94394.91;5013486;28;20046;-52
2021/11/03 06:52:45;;;;;;;16.75;13.02;;;;;;;25.14;22.55;94402.53;5013310;28;20046;-49
2021/11/03 06:55:12;;;;;;;15.73;14.18;;;;;;;24.73;22.83;94395.88;5012672;28;20057;-52
2021/11/03 06:57:39;;;;;;;15.90;14.45;;;;;;;24.75;22.99;94404.28;5013519;28;20049;-53
2021/11/03 07:00:11;;;;;;;16.63;14.93;;;;;;;24.94;22.94;94406.63;5013026;28;20057;-49
2021/11/03 07:02:39;;;;;;;17.25;15.45;;;;;;;24.88;22.89;94416.16;5004709;28;20043;-49
2021/11/03 07:05:07;;;;;;;16.95;15.18;;;;;;;24.83;23.07;94411.19;4993748;28;20050;-49
2021/11/03 07:07:34;;;;;;;17.75;15.88;;;;;;;24.77;22.80;94407.34;5013178;28;20348;-50
2021/11/03 07:10:03;;;;;;;18.52;16.20;;;;;;;24.78;22.99;94411.53;5013218;28;20069;-49
2021/11/03 07:12:30;;;;;;;17.70;15.90;;;;;;;24.53;23.32;94422.09;5013890;28;20425;-49
2021/11/03 07:14:57;;;;;;;18.95;17.05;;;;;;;25.32;22.46;94415.22;5012877;28;20045;-54
2021/11/03 07:17:24;;;;;;;18.60;16.70;;;;;;;24.86;22.82;94418.44;5012244;28;20042;-50
2021/11/03 07:19:51;;;;;;;18.85;16.95;;;;;;;24.72;23.18;94435.19;5013547;28;20061;-49
2021/11/03 07:22:18;;;;;;;18.23;16.40;;;;;;;24.75;23.13;94439.03;5013209;28;20046;-48
2021/11/03 07:24:45;;;;;;;17.42;15.63;;;;;;;24.55;23.36;94436.63;5013450;28;20049;-50
2021/11/03 07:27:12;;;;;;;17.77;16.08;;;;;;;24.70;23.37;94439.34;5013295;28;20061;-48
2021/11/03 07:29:41;;;;;;;18.40;16.60;;;;;;;24.53;23.52;94438.91;5003700;28;20046;-49
2021/11/03 07:32:09;;;;;;;19.00;17.10;;;;;;;24.53;23.63;94443.47;5004624;28;20053;-49
2021/11/03 07:34:37;;;;;;;19.40;17.27;;;;;;;24.70;23.58;94455.41;5014111;28;20052;-48
2021/11/03 07:37:05;;;;;;;18.88;17.08;;;;;;;24.60;23.64;94454.97;5016457;28;20045;-49
2021/11/03 07:39:33;;;;;;;19.23;17.27;;;;;;;24.56;23.94;94443.50;5007787;28;20058;-63
2021/11/03 07:42:01;;;;;;;21.27;18.98;;;;;;;24.81;23.54;94448.97;5006957;28;20385;-63
2021/11/03 07:44:33;;;;;;;20.27;18.17;;;;;;;25.11;23.42;94456.78;4998840;28;20057;-65
2021/11/03 07:47:01;;;;;;;22.45;19.00;;;;;;;24.75;23.57;94455.06;4997372;28;20054;-58
2021/11/03 07:49:28;;;;;;;21.27;19.08;;;;;;;25.13;23.50;94462.53;5016909;28;20050;-64
2021/11/03 07:51:55;;;;;;;20.52;18.52;;;;;;;24.83;23.76;94454.72;5014502;28;20045;-55
2021/11/03 07:54:23;;;;;;;21.50;19.23;;;;;;;25.21;23.62;94450.69;5016421;28;20056;-61
2021/11/03 07:56:50;;;;;;;21.65;19.42;;;;;;;25.20;23.66;94449.16;5016411;28;20046;-52
2021/11/03 07:59:19;;;;;;;20.90;18.70;;;;;;;25.23;23.51;94441.53;5015314;28;20555;-54
2021/11/03 08:01:46;;;;;;;21.38;19.20;;;;;;;24.89;24.05;94441.75;5010341;28;20775;-50
2021/11/03 08:04:13;;;;;;;21.90;19.65;;;;;;;25.08;24.01;94441.50;5016557;28;20049;-61
2021/11/03 08:06:41;;;;;;;23.48;19.70;;;;;;;25.28;23.82;94449.22;5016461;28;20060;-55
2021/11/03 08:09:09;;;;;;;21.35;19.13;;;;;;;25.25;23.91;94444.63;5016666;28;20046;-52
2021/11/03 08:11:47;;;;;;;20.20;18.20;;;;;;;25.30;23.70;94436.22;5014007;28;20061;-54
2021/11/03 08:14:15;;;;;;;20.77;18.65;;;;;;;25.26;23.62;94430.09;5015214;28;20045;-53
2021/11/03 08:17:00;;;;;;;20.58;18.35;;;;;;;25.21;24.05;94440.00;5016062;28;20053;-59
2021/11/03 08:19:49;;;;;;;22.40;20.20;;;;;;;24.95;23.86;94429.56;5016068;28;20060;-51
2021/11/03 08:22:20;;;;;;;22.55;20.25;;;;;;;25.39;23.47;94426.69;5014793;28;20695;-48
2021/11/03 08:24:53;;;;;;;23.20;20.63;;;;;;;25.28;23.78;94427.81;5015670;28;20050;-47
2021/11/03 08:27:22;;;;;;;25.42;22.80;;;;;;;25.26;23.58;94430.09;5016160;28;20046;-50
2021/11/03 08:29:50;;;;;;;26.42;23.67;;;;;;;25.54;23.52;94430.16;5015513;28;20042;-49
2021/11/03 08:32:24;;;;;;;26.25;23.58;;;;;;;25.93;22.99;94430.25;5015466;28;20080;-49
2021/11/03 08:34:53;;;;;;;26.23;23.52;;;;;;;25.82;23.72;94413.41;4997564;28;20062;-49
2021/11/03 08:37:28;;;;;;;27.58;24.83;;;;;;;25.74;23.63;94423.34;4996626;28;20325;-49
2021/11/03 08:39:56;;;;;;;29.67;26.55;;;;;;;25.43;24.05;94414.06;4996210;28;20053;-47
2021/11/03 08:42:23;;;;;;;30.38;27.27;;;;;;;25.08;24.25;94433.47;5005180;28;20045;-48
2021/11/03 08:44:53;;;;;;;32.92;28.17;;;;;;;25.38;24.37;94427.06;5000838;28;20046;-48
2021/11/03 08:47:21;;;;;;;30.75;27.58;;;;;;;25.39;24.40;94433.94;4995237;28;20057;-48
2021/11/03 08:49:48;;;;;;;29.95;26.33;;;;;;;25.25;24.80;94434.69;4995834;28;20076;-48
2021/11/03 08:52:17;;;;;;;31.60;28.38;;;;;;;25.40;24.77;94430.13;5004557;28;20487;-48
2021/11/03 08:54:45;;;;;;;32.10;28.65;;;;;;;25.29;24.95;94427.44;5013487;28;20046;-49
2021/11/03 08:57:14;;;;;;;32.42;28.98;;;;;;;25.28;24.94;94438.50;5014363;28;20376;-48
2021/11/03 08:59:41;;;;;;;31.50;28.10;;;;;;;25.40;24.91;94436.25;5014794;28;20360;-48
2021/11/03 09:02:09;;;;;;;31.80;28.55;;;;;;;25.50;24.46;94440.06;5015429;28;20053;-48
2021/11/03 09:04:36;;;;;;;33.40;30.00;;;;;;;25.30;24.84;94436.22;5014304;28;20053;-49
2021/11/03 09:07:11;;;;;;;33.00;29.40;;;;;;;25.40;24.77;94435.47;5015090;28;20057;-48
2021/11/03 09:09:47;;;;;;;33.25;29.85;;;;;;;25.50;25.16;94438.19;5015396;28;20046;-49
2021/11/03 09:12:17;;;;;;;33.75;30.13;;;;;;;25.45;24.95;94437.78;5015100;28;20056;-48
2021/11/03 09:14:44;;;;;;;35.45;31.50;;;;;;;24.91;25.31;94431.44;5014926;28;20046;-50
2021/11/03 09:17:12;;;;;;;33.85;30.17;;;;;;;25.02;25.72;94429.63;5015420;28;20069;-49
2021/11/03 09:19:39;;;;;;;36.55;32.53;;;;;;;25.15;25.56;94425.47;5014637;28;20049;-49
2021/11/03 09:22:07;;;;;;;36.63;32.72;;;;;;;25.35;25.54;94417.13;5014097;28;20464;-49
2021/11/03 09:24:38;;;;;;;36.28;32.00;;;;;;;25.17;25.51;94412.47;5014824;28;20060;-51
2021/11/03 09:27:13;;;;;;;35.77;31.97;;;;;;;25.23;25.44;94417.47;5015015;28;20053;-48
2021/11/03 09:29:45;;;;;;;38.13;34.08;;;;;;;25.30;25.38;94420.19;5014668;28;20293;-50
2021/11/03 09:32:17;;;;;;;37.55;33.65;;;;;;;24.96;25.93;94417.72;5014594;28;20373;-49
2021/11/03 09:34:51;;;;;;;39.30;34.30;;;;;;;25.09;25.74;94410.94;5013312;28;20046;-50
2021/11/03 09:37:21;;;;;;;38.67;34.60;;;;;;;25.13;25.70;94411.72;5014757;28;20037;-48
2021/11/03 09:39:50;;;;;;;43.45;37.08;;;;;;;25.40;25.56;94408.72;5014651;28;20049;-48
2021/11/03 09:42:18;;;;;;;40.85;34.72;;;;;;;25.23;25.82;94404.84;5014368;28;20042;-49
2021/11/03 09:44:47;;;;;;;40.35;36.03;;;;;;;25.61;25.32;94395.38;5011977;28;20050;-49
2021/11/03 09:47:15;;;;;;;41.42;36.08;;;;;;;25.43;25.59;94391.91;5014524;28;20049;-49
2021/11/03 09:49:50;;;;;;;47.60;42.38;;;;;;;25.42;25.83;94393.81;5014490;28;20049;-49
2021/11/03 09:52:21;;;;;;;69.18;59.70;;;;;;;25.83;25.60;94384.72;5013160;28;20346;-48
2021/11/03 09:54:51;;;;;;;70.13;61.53;;;;;;;25.70;25.96;94395.78;5013325;28;20050;-50
2021/11/03 09:57:30;;;;;;;59.55;53.15;;;;;;;25.75;25.59;94382.03;5011694;28;20049;-50
2021/11/03 10:00:06;;;;;;;46.35;41.58;;;;;;;26.00;25.35;94370.53;5009666;28;20049;-50
2021/11/03 10:02:57;;;;;;;43.40;38.70;;;;;;;26.12;25.37;94370.16;5013985;28;20515;-50
2021/11/03 10:05:45;;;;;;;42.53;38.15;;;;;;;26.49;25.00;94368.97;5014140;28;20046;-48
2021/11/03 10:08:18;;;;;;;41.15;36.72;;;;;;;26.56;24.84;94358.25;4996114;28;20085;-49
2021/11/03 10:10:51;;;;;;;42.58;37.97;;;;;;;27.33;23.77;94353.72;4993485;28;20058;-49
2021/11/03 10:13:24;;;;;;;40.58;36.30;;;;;;;28.00;23.01;94371.25;5009185;28;20046;-49
2021/11/03 10:15:56;;;;;;;44.40;39.80;;;;;;;27.43;23.38;94365.53;4998596;28;20046;-49
2021/11/03 10:18:25;;;;;;;45.00;40.20;;;;;;;27.42;23.66;94364.00;4994419;28;20046;-49
2021/11/03 10:21:30;;;;;;;43.78;39.13;;;;;;;26.98;24.45;94368.78;4994506;28;20062;-49
2021/11/03 10:24:23;;;;;;;44.33;39.75;;;;;;;27.13;24.00;94358.03;4998212;28;20057;-50
2021/11/03 10:27:08;;;;;;;43.28;38.80;;;;;;;27.27;23.95;94352.56;5013706;28;20058;-50
2021/11/03 10:29:48;;;;;;;44.95;40.22;;;;;;;27.44;23.70;94346.34;5013021;28;20048;-48
2021/11/03 10:32:21;;;;;;;44.05;39.55;;;;;;;27.24;24.21;94345.31;5013775;28;20053;-49
2021/11/03 10:35:09;;;;;;;46.67;41.90;;;;;;;27.55;24.03;94352.38;5013454;28;20053;-50
2021/11/03 10:37:40;;;;;;;45.10;40.40;;;;;;;27.78;23.73;94351.09;5013597;28;20059;-49
2021/11/03 10:40:23;;;;;;;46.20;41.25;;;;;;;27.74;24.03;94350.38;5008594;28;20054;-51
2021/11/03 10:42:55;;;;;;;46.42;41.53;;;;;;;28.24;23.12;94342.63;5004569;28;20058;-50
2021/11/03 10:45:28;;;;;;;45.83;41.00;;;;;;;28.01;23.83;94345.91;5013764;28;20053;-51
2021/11/03 10:48:07;;;;;;;46.63;41.92;;;;;;;28.44;23.52;94343.63;5014131;28;20049;-49
2021/11/03 10:51:39;;;;;;;46.15;40.75;;;;;;;28.33;23.72;94347.56;5013858;28;20516;-48
2021/11/03 10:54:11;;;;;;;45.47;40.97;;;;;;;28.31;23.93;94342.59;4952903;29;20055;-50
2021/11/03 10:56:52;;;;;;;45.42;40.78;;;;;;;28.15;24.05;94343.13;5004035;28;20042;-50
2021/11/03 10:59:19;;;;;;;45.60;40.78;;;;;;;28.12;23.42;94346.59;5012159;28;20491;-49
2021/11/03 11:01:48;;;;;;;47.50;42.80;;;;;;;28.38;23.57;94347.16;5013206;28;20084;-49
2021/11/03 11:04:34;;;;;;;46.90;42.08;;;;;;;28.21;24.23;94359.56;5013435;28;20369;-49
2021/11/03 11:07:09;;;;;;;45.97;41.17;;;;;;;28.09;23.98;94355.44;5013586;28;20080;-48
2021/11/03 11:09:40;;;;;;;47.00;42.20;;;;;;;28.05;23.95;94345.88;5014319;28;20041;-49
2021/11/03 11:12:36;;;;;;;48.05;43.15;;;;;;;28.20;24.24;94339.22;5001778;28;20068;-51
2021/11/03 11:15:21;;;;;;;46.45;41.60;;;;;;;28.50;23.88;94335.88;5013928;28;20368;-49
2021/11/03 11:17:52;;;;;;;49.30;44.08;;;;;;;28.87;23.68;94329.69;4997914;28;20371;-49
2021/11/03 11:20:33;;;;;;;45.42;40.78;;;;;;;28.72;23.80;94322.94;4996380;28;20050;-50
2021/11/03 11:23:20;;;;;;;46.45;41.55;;;;;;;28.75;23.39;94317.53;5007143;28;20050;-49
2021/11/03 11:26:11;;;;;;;46.85;42.10;;;;;;;28.85;23.50;94316.63;5017033;28;20060;-50
2021/11/03 11:28:56;;;;;;;46.30;41.67;;;;;;;28.80;23.63;94295.53;5014733;28;20054;-51
2021/11/03 11:31:29;;;;;;;47.63;42.47;;;;;;;29.39;22.71;94297.81;5017223;28;20055;-52
2021/11/03 11:34:22;;;;;;;45.90;41.08;;;;;;;28.93;23.31;94301.19;5016516;28;20049;-52